Yamaguchi, Japan
Current Conditions -  °F | °C
As of 6:00 PM on Wednesday 28 Jan 2015 (Local Time) from RJDC Reporting Station
Broken Clouds Broken Clouds  
Wind Chill: 35°   Ceiling: 6000
Heat Index: 43°   Visibility: 6mi
Dew Point: 36°   Wind: 16mph
Humidity: 76%   Direction: 90°E
Pressure: 30.24"   Gusts: NA
Location:  34.18°N, 131.48°E
Report Text: RJDC 280900Z 09014KT 9999 FEW030 SCT040 BKN060 06/02 Q1024
Loading
Personal Weather Stations






























Interactive Weather Map New forecast layout! Learn more

10-Day Weather Forecast

Advertisements
Track Severe Weather on mobile